Time;durP1;ratioP1;P1;durP2;ratioP2;P2;SDS_P1;SDS_P2;PMS_P1;PMS_P2;Temp;Humidity;BMP_temperature;BMP_pressure;BME280_temperature;BME280_humidity;BME280_pressure;Samples;Min_cycle;Max_cycle;Signal;HPM_P1;HPM_P2
2021/12/17 00:05:02;;;;;;;66.93;35.88;;;;;;;;;;5031489;28;20053;-47
2021/12/17 00:07:35;;;;;;;65.95;40.88;;;;;;;;;;5032440;28;20029;-49
2021/12/17 00:10:01;;;;;;;81.25;47.38;;;;;;;;;;5032138;28;20033;-48
2021/12/17 00:12:28;;;;;;;58.20;38.58;;;;;;;;;;5032390;28;20021;-49
2021/12/17 00:14:54;;;;;;;62.78;40.90;;;;;;;;;;5032616;28;20025;-48
2021/12/17 00:17:26;;;;;;;56.03;35.35;;;;;;;;;;4986851;28;1316640;-49
2021/12/17 00:52:29;;;;;;;34.92;20.40;;;;;;;;;;5032737;28;20025;-49
2021/12/17 00:54:55;;;;;;;34.67;20.65;;;;;;;;;;5032868;28;20057;-49
2021/12/17 00:57:29;;;;;;;43.20;24.85;;;;;;;;;;5031355;28;20026;-46
2021/12/17 00:59:56;;;;;;;35.75;21.30;;;;;;;;;;5032901;28;20434;-50
2021/12/17 01:02:24;;;;;;;32.17;20.02;;;;;;;;;;5033210;28;20362;-48
2021/12/17 01:04:53;;;;;;;26.67;18.77;;;;;;;;;;5032669;28;20020;-49
2021/12/17 01:07:21;;;;;;;27.05;18.02;;;;;;;;;;5031260;28;20095;-48
2021/12/17 01:09:49;;;;;;;32.35;20.77;;;;;;;;;;5032390;28;20486;-49
2021/12/17 01:12:16;;;;;;;28.48;19.00;;;;;;;;;;5032709;28;20375;-49
2021/12/17 01:14:43;;;;;;;26.45;17.60;;;;;;;;;;5033202;28;20025;-49
2021/12/17 01:17:10;;;;;;;25.58;17.10;;;;;;;;;;5036132;28;20057;-49
2021/12/17 01:25:20;;;;;;;35.83;22.67;;;;;;;;;;5036073;28;20036;-47
2021/12/17 01:36:26;;;;;;;27.83;18.13;;;;;;;;;;5014065;28;20041;-48
2021/12/17 01:43:49;;;;;;;26.50;17.88;;;;;;;;;;5013800;28;20383;-47
2021/12/17 01:46:21;;;;;;;27.52;18.67;;;;;;;;;;5013907;28;20038;-48
2021/12/17 01:49:17;;;;;;;39.55;23.77;;;;;;;;;;5013622;28;20073;-49
2021/12/17 02:00:01;;;;;;;29.17;18.20;;;;;;;;;;5013469;28;20030;-49
2021/12/17 02:02:28;;;;;;;26.48;17.83;;;;;;;;;;5030995;28;20033;-49
2021/12/17 02:04:56;;;;;;;30.75;19.15;;;;;;;;;;5035413;28;20362;-49
2021/12/17 02:07:22;;;;;;;30.20;18.83;;;;;;;;;;5035226;28;20031;-47
2021/12/17 02:20:58;;;;;;;35.13;21.40;;;;;;;;;;5034972;28;20087;-48
2021/12/17 02:29:04;;;;;;;28.83;18.20;;;;;;;;;;5035085;28;20044;-49
2021/12/17 02:31:32;;;;;;;27.30;17.85;;;;;;;;;;5034877;28;20024;-48
2021/12/17 02:36:57;;;;;;;38.80;22.98;;;;;;;;;;5034871;28;20115;-48
2021/12/17 02:47:35;;;;;;;28.23;17.70;;;;;;;;;;5034902;28;20437;-50
2021/12/17 02:50:04;;;;;;;27.17;17.50;;;;;;;;;;5034436;28;20195;-49
2021/12/17 02:52:31;;;;;;;26.75;18.30;;;;;;;;;;5034712;28;20060;-49
2021/12/17 02:54:58;;;;;;;26.92;17.60;;;;;;;;;;5034260;28;20075;-49
2021/12/17 02:57:24;;;;;;;37.95;22.00;;;;;;;;;;5034467;28;20081;-49
2021/12/17 02:59:51;;;;;;;29.42;18.90;;;;;;;;;;5034703;28;20104;-48
2021/12/17 03:02:18;;;;;;;24.70;17.27;;;;;;;;;;5034616;28;20029;-48
2021/12/17 03:04:46;;;;;;;25.95;18.35;;;;;;;;;;5034330;28;20032;-48
2021/12/17 03:07:13;;;;;;;33.28;19.25;;;;;;;;;;5034193;28;20100;-49
2021/12/17 03:12:14;;;;;;;26.02;18.33;;;;;;;;;;5034117;28;20017;-49
2021/12/17 03:14:48;;;;;;;30.40;18.60;;;;;;;;;;5033949;28;20040;-48
2021/12/17 03:17:23;;;;;;;22.45;15.48;;;;;;;;;;5033778;28;20484;-48
2021/12/17 03:25:07;;;;;;;26.13;16.45;;;;;;;;;;5034039;28;20120;-49
2021/12/17 03:27:33;;;;;;;28.27;17.25;;;;;;;;;;5033779;28;20100;-48
2021/12/17 03:29:59;;;;;;;21.63;15.60;;;;;;;;;;5033699;28;20064;-49
2021/12/17 03:32:27;;;;;;;27.92;18.13;;;;;;;;;;5033961;28;20469;-50
2021/12/17 03:34:53;;;;;;;26.45;16.75;;;;;;;;;;5033744;28;20025;-48
2021/12/17 03:37:19;;;;;;;25.88;16.92;;;;;;;;;;5033641;28;20387;-48
2021/12/17 03:39:48;;;;;;;26.92;17.95;;;;;;;;;;5033377;28;20025;-48
2021/12/17 03:42:15;;;;;;;25.23;17.42;;;;;;;;;;5033706;28;20021;-49
2021/12/17 03:44:41;;;;;;;31.83;19.27;;;;;;;;;;5033315;28;20036;-48
2021/12/17 03:47:07;;;;;;;26.55;17.23;;;;;;;;;;5033680;28;20104;-48
2021/12/17 03:49:36;;;;;;;25.95;17.95;;;;;;;;;;5033585;28;20044;-48
2021/12/17 03:52:05;;;;;;;28.27;16.85;;;;;;;;;;5033420;28;20033;-49
2021/12/17 03:54:35;;;;;;;24.10;16.40;;;;;;;;;;5033507;28;20607;-50
2021/12/17 03:57:07;;;;;;;36.72;23.15;;;;;;;;;;5033256;28;20107;-49
2021/12/17 03:59:33;;;;;;;28.27;18.55;;;;;;;;;;5033336;28;20481;-49
2021/12/17 04:02:00;;;;;;;26.67;17.52;;;;;;;;;;5033373;28;20017;-49
2021/12/17 04:04:28;;;;;;;31.23;19.02;;;;;;;;;;5033664;28;20056;-49
2021/12/17 04:06:54;;;;;;;26.40;17.75;;;;;;;;;;5033306;28;20032;-48
2021/12/17 04:09:22;;;;;;;28.65;18.52;;;;;;;;;;5032914;28;20026;-49
2021/12/17 04:11:48;;;;;;;28.50;18.27;;;;;;;;;;5033346;28;20504;-50
2021/12/17 04:14:14;;;;;;;25.13;16.08;;;;;;;;;;5033031;28;20385;-48
2021/12/17 04:16:41;;;;;;;20.42;14.10;;;;;;;;;;5033133;28;20050;-48
2021/12/17 04:19:07;;;;;;;25.05;15.55;;;;;;;;;;5033398;28;20071;-48
2021/12/17 04:21:33;;;;;;;21.92;14.38;;;;;;;;;;5033214;28;20029;-48
2021/12/17 04:23:59;;;;;;;22.20;14.18;;;;;;;;;;5033297;28;20492;-49
2021/12/17 04:26:28;;;;;;;26.55;19.15;;;;;;;;;;5033171;28;20162;-50
2021/12/17 04:28:57;;;;;;;23.73;16.10;;;;;;;;;;5032997;28;20038;-49
2021/12/17 04:31:26;;;;;;;30.30;18.27;;;;;;;;;;5033532;28;20013;-48
2021/12/17 04:33:52;;;;;;;30.98;19.35;;;;;;;;;;5033234;28;20025;-48
2021/12/17 04:36:27;;;;;;;29.02;18.58;;;;;;;;;;5033103;28;20457;-49
2021/12/17 04:38:55;;;;;;;25.65;17.38;;;;;;;;;;5032831;28;20113;-49
2021/12/17 04:46:38;;;;;;;25.65;17.85;;;;;;;;;;5033101;28;20033;-49
2021/12/17 04:57:28;;;;;;;25.70;17.52;;;;;;;;;;5036446;28;20413;-48
2021/12/17 04:59:58;;;;;;;23.55;15.82;;;;;;;;;;5036548;28;20367;-48
2021/12/17 05:02:25;;;;;;;31.17;18.48;;;;;;;;;;5036458;28;20042;-50
2021/12/17 05:04:52;;;;;;;33.88;20.50;;;;;;;;;;5036141;28;20025;-51
2021/12/17 05:07:18;;;;;;;29.23;18.40;;;;;;;;;;5036259;28;20381;-50
2021/12/17 05:09:57;;;;;;;30.23;19.40;;;;;;;;;;5036335;28;20034;-49
2021/12/17 05:23:08;;;;;;;31.27;19.00;;;;;;;;;;5036324;28;20477;-47
2021/12/17 05:25:34;;;;;;;26.25;15.55;;;;;;;;;;5035069;28;20033;-50
2021/12/17 05:28:05;;;;;;;38.70;24.90;;;;;;;;;;5035450;28;20025;-48
2021/12/17 05:30:35;;;;;;;35.45;23.50;;;;;;;;;;5034848;28;20081;-48
2021/12/17 05:33:04;;;;;;;22.75;16.88;;;;;;;;;;5034748;28;20100;-49
2021/12/17 05:35:32;;;;;;;39.90;25.67;;;;;;;;;;5034451;28;20040;-48
2021/12/17 05:37:58;;;;;;;32.88;21.75;;;;;;;;;;5034865;28;20067;-49
2021/12/17 05:40:25;;;;;;;25.02;17.08;;;;;;;;;;5034261;28;20021;-50
2021/12/17 05:42:58;;;;;;;45.30;27.95;;;;;;;;;;5034656;28;20017;-49
2021/12/17 05:45:35;;;;;;;34.78;20.92;;;;;;;;;;5035566;28;20478;-49
2021/12/17 05:48:02;;;;;;;29.42;19.52;;;;;;;;;;5035805;28;20056;-49
2021/12/17 05:50:31;;;;;;;30.77;19.48;;;;;;;;;;5035437;28;20029;-49
2021/12/17 05:52:57;;;;;;;34.65;20.33;;;;;;;;;;5035348;28;20029;-49
2021/12/17 05:55:23;;;;;;;35.92;22.02;;;;;;;;;;5035322;28;20036;-50
2021/12/17 05:57:50;;;;;;;27.98;17.60;;;;;;;;;;5035277;28;20027;-48
2021/12/17 06:00:16;;;;;;;57.47;32.65;;;;;;;;;;5035234;28;20079;-49
2021/12/17 06:02:45;;;;;;;61.67;34.15;;;;;;;;;;5035267;28;20096;-47
2021/12/17 06:05:11;;;;;;;52.58;31.13;;;;;;;;;;5035202;28;20060;-49
2021/12/17 06:07:37;;;;;;;35.20;22.55;;;;;;;;;;5035212;28;20090;-48
2021/12/17 06:10:05;;;;;;;55.22;30.05;;;;;;;;;;5035128;28;20030;-49
2021/12/17 06:12:31;;;;;;;42.03;25.65;;;;;;;;;;5035564;28;20495;-49
2021/12/17 06:14:58;;;;;;;39.58;26.00;;;;;;;;;;5035244;28;20079;-48
2021/12/17 06:17:24;;;;;;;49.90;29.75;;;;;;;;;;5035068;28;20053;-48
2021/12/17 06:19:50;;;;;;;46.97;27.45;;;;;;;;;;5035343;28;20112;-48
2021/12/17 06:22:17;;;;;;;58.85;32.05;;;;;;;;;;5035197;28;20024;-49
2021/12/17 06:24:45;;;;;;;34.50;21.00;;;;;;;;;;5035324;28;20033;-48
2021/12/17 06:27:15;;;;;;;31.40;19.38;;;;;;;;;;5035329;28;20024;-47
2021/12/17 06:29:41;;;;;;;43.15;25.40;;;;;;;;;;5034919;28;20034;-48
2021/12/17 06:32:08;;;;;;;36.70;21.65;;;;;;;;;;5034964;28;20029;-51
2021/12/17 06:34:34;;;;;;;44.47;26.40;;;;;;;;;;5034982;28;20106;-47
2021/12/17 06:37:00;;;;;;;50.95;27.33;;;;;;;;;;5034766;28;20018;-48
2021/12/17 06:39:27;;;;;;;46.50;26.60;;;;;;;;;;5034911;28;20167;-47
2021/12/17 06:41:53;;;;;;;36.83;21.17;;;;;;;;;;5034732;28;20029;-48
2021/12/17 06:44:23;;;;;;;39.13;22.27;;;;;;;;;;5034558;28;20029;-48
2021/12/17 06:49:47;;;;;;;;;;;;;;;;;;5035162;28;20469;-45
2021/12/17 07:06:06;;;;;;;44.92;24.38;;;;;;;;;;5034517;28;20037;-50
2021/12/17 07:17:34;;;;;;;27.63;17.42;;;;;;;;;;5012327;28;20092;-52
2021/12/17 07:33:07;;;;;;;41.15;23.42;;;;;;;;;;5012178;28;20030;-51
2021/12/17 07:40:52;;;;;;;37.55;21.95;;;;;;;;;;5012295;28;20045;-50
2021/12/17 07:43:26;;;;;;;36.17;22.25;;;;;;;;;;5012067;28;20029;-54
2021/12/17 07:45:53;;;;;;;41.80;22.35;;;;;;;;;;5011899;28;20038;-56
2021/12/17 07:48:19;;;;;;;32.25;18.33;;;;;;;;;;5033389;28;20037;-50
2021/12/17 07:50:45;;;;;;;28.92;17.42;;;;;;;;;;5033648;28;20034;-56
2021/12/17 07:53:12;;;;;;;29.02;15.95;;;;;;;;;;5034018;28;20021;-53
2021/12/17 07:55:40;;;;;;;23.98;14.48;;;;;;;;;;5033608;28;20031;-52
2021/12/17 07:58:06;;;;;;;24.95;15.07;;;;;;;;;;5032834;28;20147;-52
2021/12/17 08:00:33;;;;;;;26.02;14.63;;;;;;;;;;5033674;28;20017;-55
2021/12/17 08:02:59;;;;;;;24.30;13.93;;;;;;;;;;5033568;28;20021;-53
2021/12/17 08:05:25;;;;;;;21.08;13.77;;;;;;;;;;5033398;28;20028;-52
2021/12/17 08:07:53;;;;;;;17.42;11.90;;;;;;;;;;5033665;28;20049;-54
2021/12/17 08:10:19;;;;;;;20.73;12.23;;;;;;;;;;5033608;28;20137;-57
2021/12/17 08:12:47;;;;;;;20.83;11.75;;;;;;;;;;5033457;28;20083;-50
2021/12/17 08:15:14;;;;;;;20.42;12.75;;;;;;;;;;5033309;28;20030;-57
2021/12/17 08:18:04;;;;;;;16.08;11.05;;;;;;;;;;5033261;28;20053;-51
2021/12/17 08:28:50;;;;;;;17.90;10.93;;;;;;;;;;5037305;28;20029;-51
2021/12/17 08:31:16;;;;;;;20.75;11.25;;;;;;;;;;5037188;28;20087;-49
2021/12/17 08:33:43;;;;;;;16.20;10.88;;;;;;;;;;5037403;28;20465;-51
2021/12/17 08:36:09;;;;;;;17.77;10.45;;;;;;;;;;5037236;28;20027;-49
2021/12/17 08:38:35;;;;;;;17.45;11.32;;;;;;;;;;5037241;28;20088;-51
2021/12/17 08:41:01;;;;;;;21.35;11.90;;;;;;;;;;5036996;28;20036;-50
2021/12/17 08:43:27;;;;;;;23.00;12.48;;;;;;;;;;5037138;28;20433;-50
2021/12/17 08:45:56;;;;;;;20.55;10.77;;;;;;;;;;5036992;28;20037;-49
2021/12/17 08:48:23;;;;;;;22.70;11.27;;;;;;;;;;5037036;28;20029;-50
2021/12/17 08:50:49;;;;;;;17.20;10.52;;;;;;;;;;5036799;28;20033;-49
2021/12/17 08:53:15;;;;;;;20.38;10.98;;;;;;;;;;5036942;28;20033;-49
2021/12/17 08:55:41;;;;;;;20.98;10.20;;;;;;;;;;5036616;28;20029;-50
2021/12/17 08:58:12;;;;;;;22.88;12.02;;;;;;;;;;5036747;28;20032;-49
2021/12/17 09:00:40;;;;;;;19.93;11.47;;;;;;;;;;5036965;28;20445;-53
2021/12/17 09:03:09;;;;;;;18.80;10.90;;;;;;;;;;5036788;28;20020;-49
2021/12/17 09:05:37;;;;;;;24.65;11.45;;;;;;;;;;5036674;28;20367;-48
2021/12/17 09:08:04;;;;;;;18.35;9.60;;;;;;;;;;5036723;28;20017;-49
2021/12/17 09:10:33;;;;;;;15.85;9.27;;;;;;;;;;5036575;28;20046;-48
2021/12/17 09:12:59;;;;;;;19.65;9.70;;;;;;;;;;5036778;28;20390;-49
2021/12/17 09:15:27;;;;;;;21.23;11.40;;;;;;;;;;5036373;28;20025;-50
2021/12/17 09:17:54;;;;;;;17.08;9.77;;;;;;;;;;5036300;28;20525;-50
2021/12/17 09:20:20;;;;;;;16.85;10.00;;;;;;;;;;5036495;28;20104;-51
2021/12/17 09:22:46;;;;;;;18.15;11.48;;;;;;;;;;5036339;28;20072;-53
2021/12/17 09:25:15;;;;;;;18.95;9.73;;;;;;;;;;5036263;28;20025;-49
2021/12/17 09:27:41;;;;;;;21.13;9.98;;;;;;;;;;5036406;28;20083;-50
2021/12/17 09:30:09;;;;;;;19.15;10.13;;;;;;;;;;5036195;28;20037;-50
2021/12/17 09:32:38;;;;;;;17.13;8.73;;;;;;;;;;5036055;28;20038;-48
2021/12/17 09:35:04;;;;;;;21.48;10.82;;;;;;;;;;5035797;28;20053;-49
2021/12/17 09:37:30;;;;;;;27.08;14.10;;;;;;;;;;5035757;28;20029;-48
2021/12/17 09:39:56;;;;;;;23.70;12.07;;;;;;;;;;5035817;28;20390;-53
2021/12/17 09:42:22;;;;;;;26.33;13.85;;;;;;;;;;5035774;28;20060;-49
2021/12/17 09:44:48;;;;;;;36.63;18.63;;;;;;;;;;5035903;28;20447;-51
2021/12/17 09:47:14;;;;;;;39.35;18.70;;;;;;;;;;5036014;28;20037;-50
2021/12/17 09:49:40;;;;;;;64.18;31.80;;;;;;;;;;5035991;28;20104;-51
2021/12/17 09:52:07;;;;;;;83.32;43.70;;;;;;;;;;5035832;28;20112;-49
2021/12/17 09:54:36;;;;;;;51.25;25.02;;;;;;;;;;5035527;28;20017;-50
2021/12/17 09:57:02;;;;;;;29.10;14.90;;;;;;;;;;5035112;28;20028;-49
2021/12/17 09:59:28;;;;;;;25.45;13.50;;;;;;;;;;5035156;28;20343;-50
2021/12/17 10:01:55;;;;;;;42.20;22.65;;;;;;;;;;5034964;28;20025;-49
2021/12/17 10:04:33;;;;;;;16.70;9.88;;;;;;;;;;5035168;28;20037;-48
2021/12/17 10:07:19;;;;;;;19.90;11.23;;;;;;;;;;5035319;28;20401;-48
2021/12/17 10:09:49;;;;;;;21.92;12.23;;;;;;;;;;5034727;28;20468;-46
2021/12/17 10:12:16;;;;;;;25.60;13.68;;;;;;;;;;5035412;28;20148;-49
2021/12/17 10:14:43;;;;;;;26.42;13.95;;;;;;;;;;5035303;28;20080;-52
2021/12/17 10:17:15;;;;;;;23.52;12.30;;;;;;;;;;5034956;28;20073;-48
2021/12/17 10:19:49;;;;;;;23.83;13.80;;;;;;;;;;5035083;28;20374;-50
2021/12/17 10:22:17;;;;;;;28.05;15.10;;;;;;;;;;5035355;28;20029;-48
2021/12/17 10:24:56;;;;;;;37.97;21.13;;;;;;;;;;5035205;28;20017;-49
2021/12/17 10:27:26;;;;;;;42.22;19.27;;;;;;;;;;5034758;28;20072;-49
2021/12/17 10:29:53;;;;;;;50.05;24.15;;;;;;;;;;5034856;28;20041;-48
2021/12/17 10:32:20;;;;;;;38.08;17.50;;;;;;;;;;5035149;28;20084;-46
2021/12/17 10:35:04;;;;;;;23.33;11.57;;;;;;;;;;5035158;28;20369;-47
2021/12/17 10:37:50;;;;;;;31.67;17.73;;;;;;;;;;5034826;28;20076;-47
2021/12/17 10:40:18;;;;;;;49.88;25.27;;;;;;;;;;5034764;28;20033;-46
2021/12/17 10:43:00;;;;;;;53.05;27.52;;;;;;;;;;5034818;28;20029;-46
2021/12/17 10:45:31;;;;;;;28.58;14.95;;;;;;;;;;5035072;28;20543;-54
2021/12/17 10:48:23;;;;;;;38.30;18.83;;;;;;;;;;5033953;28;20026;-47
2021/12/17 10:50:50;;;;;;;25.33;12.23;;;;;;;;;;5034166;28;20367;-45
2021/12/17 10:53:21;;;;;;;24.67;12.80;;;;;;;;;;5033187;28;20033;-47
2021/12/17 10:55:47;;;;;;;27.17;13.40;;;;;;;;;;5034388;28;20052;-49
2021/12/17 10:58:18;;;;;;;23.85;11.93;;;;;;;;;;5034191;28;20049;-48
2021/12/17 11:01:10;;;;;;;21.45;11.05;;;;;;;;;;5034426;28;20052;-47
2021/12/17 11:03:42;;;;;;;19.13;11.35;;;;;;;;;;5031743;28;20413;-52
2021/12/17 11:06:09;;;;;;;22.85;12.57;;;;;;;;;;5034358;28;20060;-46
2021/12/17 11:08:37;;;;;;;35.63;14.38;;;;;;;;;;5034437;28;20022;-50
2021/12/17 11:11:12;;;;;;;28.33;14.65;;;;;;;;;;5033918;28;20087;-49
2021/12/17 11:13:58;;;;;;;28.30;14.40;;;;;;;;;;5034274;28;20095;-50
2021/12/17 11:16:24;;;;;;;24.20;13.07;;;;;;;;;;5033760;28;20540;-48
2021/12/17 11:18:53;;;;;;;25.55;12.90;;;;;;;;;;5034075;28;20040;-49
2021/12/17 11:21:20;;;;;;;22.27;10.95;;;;;;;;;;5034045;28;20033;-49
2021/12/17 11:23:46;;;;;;;26.33;13.43;;;;;;;;;;5034033;28;20465;-49
2021/12/17 11:26:12;;;;;;;23.55;10.85;;;;;;;;;;5033915;28;20059;-49
2021/12/17 11:28:38;;;;;;;35.85;16.50;;;;;;;;;;5033690;28;20393;-50
2021/12/17 11:31:05;;;;;;;35.50;17.33;;;;;;;;;;5033508;28;20083;-48
2021/12/17 11:33:33;;;;;;;42.13;20.70;;;;;;;;;;5033712;28;20025;-45
2021/12/17 11:36:02;;;;;;;54.97;26.25;;;;;;;;;;5033864;28;20025;-47
2021/12/17 11:38:48;;;;;;;86.43;41.80;;;;;;;;;;5034037;28;20029;-49
2021/12/17 11:41:19;;;;;;;71.13;35.00;;;;;;;;;;5033701;28;20018;-47
2021/12/17 11:43:50;;;;;;;46.40;21.40;;;;;;;;;;5033762;28;20079;-50
2021/12/17 11:46:17;;;;;;;48.03;25.60;;;;;;;;;;5033667;28;20258;-50
2021/12/17 11:48:54;;;;;;;26.50;13.77;;;;;;;;;;5033849;28;20048;-49
2021/12/17 11:51:24;;;;;;;33.20;14.73;;;;;;;;;;5033227;28;20061;-50
2021/12/17 11:53:53;;;;;;;38.40;18.35;;;;;;;;;;5033523;28;20385;-50
2021/12/17 11:56:33;;;;;;;31.15;14.77;;;;;;;;;;5033292;28;20547;-51
2021/12/17 11:59:03;;;;;;;29.98;13.68;;;;;;;;;;5032561;28;20473;-50
2021/12/17 12:01:49;;;;;;;34.63;16.27;;;;;;;;;;5033325;28;20028;-50
2021/12/17 12:04:41;;;;;;;31.50;17.05;;;;;;;;;;5032234;28;20033;-48
2021/12/17 12:07:12;;;;;;;32.63;17.38;;;;;;;;;;5030599;28;20409;-52
2021/12/17 12:09:57;;;;;;;33.10;15.93;;;;;;;;;;5032370;28;20029;-50
2021/12/17 12:12:25;;;;;;;27.75;13.88;;;;;;;;;;5031915;28;20033;-50
2021/12/17 12:14:51;;;;;;;28.27;13.75;;;;;;;;;;5033117;28;20079;-55
2021/12/17 12:17:39;;;;;;;25.50;12.32;;;;;;;;;;5033043;28;20049;-52
2021/12/17 12:20:05;;;;;;;37.00;16.92;;;;;;;;;;5033154;28;20374;-56
2021/12/17 12:22:43;;;;;;;45.30;20.25;;;;;;;;;;5033276;28;20022;-53
2021/12/17 12:25:30;;;;;;;34.72;15.95;;;;;;;;;;5033071;28;20397;-53
2021/12/17 12:27:56;;;;;;;37.63;15.45;;;;;;;;;;5033001;28;20029;-53
2021/12/17 12:30:38;;;;;;;43.85;16.75;;;;;;;;;;5033107;28;20030;-53
2021/12/17 12:33:06;;;;;;;33.90;14.50;;;;;;;;;;5033177;28;20029;-52
2021/12/17 12:35:32;;;;;;;34.30;15.57;;;;;;;;;;5033155;28;20013;-49
2021/12/17 12:38:22;;;;;;;45.15;18.08;;;;;;;;;;5033061;28;20444;-50
2021/12/17 12:40:57;;;;;;;39.35;16.35;;;;;;;;;;5033315;28;20025;-50
2021/12/17 12:43:33;;;;;;;44.42;18.02;;;;;;;;;;5033325;28;20025;-51
2021/12/17 12:45:59;;;;;;;41.45;19.35;;;;;;;;;;5032897;28;20500;-51
2021/12/17 12:48:38;;;;;;;43.45;19.10;;;;;;;;;;5033117;28;20394;-52
2021/12/17 12:51:14;;;;;;;40.92;18.98;;;;;;;;;;5032780;28;20112;-52
2021/12/17 12:53:45;;;;;;;55.88;25.33;;;;;;;;;;5032998;28;20076;-52
2021/12/17 12:56:16;;;;;;;51.80;24.70;;;;;;;;;;5032728;28;20117;-52
2021/12/17 12:58:47;;;;;;;47.35;21.13;;;;;;;;;;5033049;28;20383;-50
2021/12/17 13:01:15;;;;;;;30.88;14.70;;;;;;;;;;5031600;28;20037;-54
2021/12/17 13:03:41;;;;;;;27.52;15.15;;;;;;;;;;5033253;28;20021;-49
2021/12/17 13:06:15;;;;;;;39.38;15.77;;;;;;;;;;5032827;28;20474;-52
2021/12/17 13:08:41;;;;;;;34.08;16.25;;;;;;;;;;5032891;28;20477;-50
2021/12/17 13:11:08;;;;;;;33.22;15.80;;;;;;;;;;5034279;28;20160;-50
2021/12/17 13:16:42;;;;;;;31.55;15.40;;;;;;;;;;5014286;28;20041;-51
2021/12/17 13:22:24;;;;;;;26.20;11.20;;;;;;;;;;5014531;28;20037;-50
2021/12/17 13:24:53;;;;;;;26.42;13.25;;;;;;;;;;5014377;28;20030;-50
2021/12/17 13:27:19;;;;;;;;;;;;;;;;;;5014783;28;20125;-50
2021/12/17 13:29:45;;;;;;;27.27;13.68;;;;;;;;;;5014220;28;20009;-50
2021/12/17 13:32:17;;;;;;;31.05;14.13;;;;;;;;;;5014168;28;20042;-52
2021/12/17 13:34:43;;;;;;;;;;;;;;;;;;5014760;28;20493;-51
2021/12/17 13:37:26;;;;;;;33.75;16.27;;;;;;;;;;5014315;28;19929;-50
2021/12/17 13:39:56;;;;;;;33.90;16.50;;;;;;;;;;5014336;28;20038;-51
2021/12/17 13:42:30;;;;;;;33.83;15.68;;;;;;;;;;5014011;28;20026;-51
2021/12/17 13:44:59;;;;;;;37.25;16.70;;;;;;;;;;5014098;28;20081;-50
2021/12/17 13:47:40;;;;;;;28.73;13.90;;;;;;;;;;5014145;28;20046;-51
2021/12/17 13:50:06;;;;;;;35.67;17.23;;;;;;;;;;5013843;28;20029;-51
2021/12/17 13:52:33;;;;;;;45.40;23.70;;;;;;;;;;5020855;28;20116;-52
2021/12/17 13:55:00;;;;;;;52.85;28.20;;;;;;;;;;5035835;28;20029;-53
2021/12/17 13:57:28;;;;;;;51.08;25.67;;;;;;;;;;5035678;28;20029;-51
2021/12/17 14:00:03;;;;;;;36.92;17.73;;;;;;;;;;5035457;28;20021;-51
2021/12/17 14:02:33;;;;;;;32.90;15.98;;;;;;;;;;5035410;28;20025;-51
2021/12/17 14:05:03;;;;;;;33.22;15.18;;;;;;;;;;5035617;28;20036;-50
2021/12/17 14:07:30;;;;;;;28.52;13.10;;;;;;;;;;5035370;28;20092;-51
2021/12/17 14:09:58;;;;;;;24.30;12.98;;;;;;;;;;5035403;28;20032;-50
2021/12/17 14:12:31;;;;;;;26.25;12.40;;;;;;;;;;5035407;28;20029;-51
2021/12/17 14:15:20;;;;;;;22.63;11.07;;;;;;;;;;5035676;28;20025;-51
2021/12/17 14:17:53;;;;;;;21.73;10.65;;;;;;;;;;4993789;28;20116;-51
2021/12/17 14:20:22;;;;;;;20.25;10.75;;;;;;;;;;4993877;28;20030;-51
2021/12/17 14:22:49;;;;;;;16.27;8.50;;;;;;;;;;4992647;28;20045;-51
2021/12/17 14:25:33;;;;;;;26.13;11.32;;;;;;;;;;4993928;28;20098;-51
2021/12/17 14:28:09;;;;;;;21.48;10.77;;;;;;;;;;4994058;28;20038;-51
2021/12/17 14:30:35;;;;;;;26.08;11.27;;;;;;;;;;4993692;28;20042;-52
2021/12/17 14:33:07;;;;;;;29.42;13.18;;;;;;;;;;4993594;28;20034;-49
2021/12/17 14:36:09;;;;;;;24.75;12.40;;;;;;;;;;4993526;28;20038;-52
2021/12/17 14:38:49;;;;;;;29.58;14.13;;;;;;;;;;4955082;29;20031;-52
2021/12/17 14:41:23;;;;;;;27.38;12.15;;;;;;;;;;4954653;28;20094;-51
2021/12/17 14:43:58;;;;;;;30.00;12.85;;;;;;;;;;4954540;28;20567;-52
2021/12/17 14:46:27;;;;;;;28.50;13.13;;;;;;;;;;4954667;29;20582;-53
2021/12/17 14:49:20;;;;;;;22.20;11.70;;;;;;;;;;4954489;28;20415;-52
2021/12/17 15:02:45;;;;;;;43.20;18.30;;;;;;;;;;4993008;28;20113;-54
2021/12/17 15:05:12;;;;;;;36.72;18.40;;;;;;;;;;4992850;28;20046;-52
2021/12/17 15:07:38;;;;;;;39.38;17.00;;;;;;;;;;4993071;28;20026;-53
2021/12/17 15:10:06;;;;;;;40.15;17.52;;;;;;;;;;4992914;28;20040;-53
2021/12/17 15:14:59;;;;;;;41.00;16.83;;;;;;;;;;5034369;28;20083;-53
2021/12/17 15:17:25;;;;;;;26.38;14.15;;;;;;;;;;5033911;28;20096;-52
2021/12/17 15:19:53;;;;;;;30.52;12.93;;;;;;;;;;5034115;28;20028;-51
2021/12/17 15:22:21;;;;;;;28.38;12.60;;;;;;;;;;5033315;28;20044;-52
2021/12/17 15:24:49;;;;;;;27.75;11.15;;;;;;;;;;5034027;28;20025;-51
2021/12/17 15:27:15;;;;;;;28.63;11.70;;;;;;;;;;5034041;28;20500;-52
2021/12/17 15:29:46;;;;;;;24.77;11.10;;;;;;;;;;5034077;28;20053;-50
2021/12/17 15:32:12;;;;;;;28.20;12.05;;;;;;;;;;5033723;28;20052;-52
2021/12/17 15:34:38;;;;;;;34.22;14.00;;;;;;;;;;5033508;28;20470;-51
2021/12/17 15:37:04;;;;;;;35.38;14.50;;;;;;;;;;5033686;28;20021;-52
2021/12/17 15:39:35;;;;;;;34.80;14.55;;;;;;;;;;5033807;28;20048;-49
2021/12/17 15:42:03;;;;;;;35.70;14.90;;;;;;;;;;5033779;28;20048;-52
2021/12/17 15:44:29;;;;;;;29.60;13.32;;;;;;;;;;5032216;28;20163;-51
2021/12/17 15:46:55;;;;;;;31.75;13.43;;;;;;;;;;5033665;28;20473;-52
2021/12/17 15:49:24;;;;;;;26.92;12.13;;;;;;;;;;5033642;28;20068;-51
2021/12/17 15:51:50;;;;;;;30.02;13.57;;;;;;;;;;5033428;28;20032;-52
2021/12/17 15:54:16;;;;;;;30.10;13.57;;;;;;;;;;5033476;28;20453;-52
2021/12/17 15:56:46;;;;;;;34.17;13.43;;;;;;;;;;5033415;28;20025;-50
2021/12/17 15:59:15;;;;;;;23.48;11.60;;;;;;;;;;5033624;28;20025;-51
2021/12/17 16:01:41;;;;;;;32.20;14.00;;;;;;;;;;5033486;28;20021;-51
2021/12/17 16:04:07;;;;;;;33.28;14.27;;;;;;;;;;5033344;28;20052;-52
2021/12/17 16:06:33;;;;;;;30.30;14.43;;;;;;;;;;5033463;28;20065;-52
2021/12/17 16:09:05;;;;;;;34.58;15.20;;;;;;;;;;5033510;28;20021;-52
2021/12/17 16:22:35;;;;;;;33.53;14.15;;;;;;;;;;5033571;28;20040;-52
2021/12/17 16:25:01;;;;;;;27.08;13.07;;;;;;;;;;5033330;28;20029;-52
2021/12/17 16:27:28;;;;;;;26.48;12.25;;;;;;;;;;5033003;28;20059;-51
2021/12/17 16:29:54;;;;;;;29.08;12.45;;;;;;;;;;5033111;28;20022;-51
2021/12/17 16:32:21;;;;;;;70.47;23.88;;;;;;;;;;5033088;28;20080;-52
2021/12/17 16:34:49;;;;;;;105.63;34.17;;;;;;;;;;5033157;28;20079;-52
2021/12/17 16:37:15;;;;;;;77.70;32.10;;;;;;;;;;5033229;28;20414;-52
2021/12/17 16:39:41;;;;;;;47.22;20.05;;;;;;;;;;5033175;28;20076;-51
2021/12/17 16:42:15;;;;;;;48.65;18.75;;;;;;;;;;5031547;28;20045;-51
2021/12/17 16:45:19;;;;;;;104.30;34.78;;;;;;;;;;5033243;28;20021;-51
2021/12/17 16:47:35;;;;;;;88.10;36.15;;;;;;;;;;5036600;28;20029;-50
2021/12/17 16:50:02;;;;;;;41.70;16.58;;;;;;;;;;5036936;28;20022;-51
2021/12/17 16:52:29;;;;;;;24.00;12.45;;;;;;;;;;5036924;28;20033;-52
2021/12/17 16:54:57;;;;;;;31.83;14.02;;;;;;;;;;5036648;28;20079;-52
2021/12/17 16:57:24;;;;;;;29.80;13.70;;;;;;;;;;5037075;28;20049;-51
2021/12/17 16:59:52;;;;;;;33.10;15.10;;;;;;;;;;5036741;28;20025;-52
2021/12/17 17:02:18;;;;;;;30.20;15.48;;;;;;;;;;5036744;28;20144;-51
2021/12/17 17:04:47;;;;;;;36.28;16.67;;;;;;;;;;5036757;28;20022;-51
2021/12/17 17:07:14;;;;;;;74.38;26.55;;;;;;;;;;5035228;28;20425;-52
2021/12/17 17:09:40;;;;;;;91.45;31.35;;;;;;;;;;5036496;28;20025;-52
2021/12/17 17:12:09;;;;;;;79.25;26.00;;;;;;;;;;5036345;28;20073;-51
2021/12/17 17:14:35;;;;;;;63.80;22.80;;;;;;;;;;5036568;28;20030;-51
2021/12/17 17:17:01;;;;;;;53.75;21.17;;;;;;;;;;5036343;28;20394;-51
2021/12/17 17:19:28;;;;;;;32.88;16.77;;;;;;;;;;5036415;28;20036;-51
2021/12/17 17:21:56;;;;;;;33.13;15.00;;;;;;;;;;5036301;28;20025;-50
2021/12/17 17:24:23;;;;;;;26.30;13.75;;;;;;;;;;5036181;28;20105;-51
2021/12/17 17:26:49;;;;;;;28.95;12.57;;;;;;;;;;5036065;28;20519;-51
2021/12/17 17:29:16;;;;;;;26.30;12.65;;;;;;;;;;5036536;28;20032;-54
2021/12/17 17:31:42;;;;;;;20.35;11.35;;;;;;;;;;5036374;28;20064;-52
2021/12/17 17:34:09;;;;;;;31.58;12.00;;;;;;;;;;5036281;28;20054;-52
2021/12/17 17:36:41;;;;;;;28.42;12.27;;;;;;;;;;5035930;28;20053;-52
2021/12/17 17:39:11;;;;;;;24.17;11.95;;;;;;;;;;5035922;28;20104;-51
2021/12/17 17:41:37;;;;;;;26.02;12.52;;;;;;;;;;5036141;28;20511;-51
2021/12/17 17:44:04;;;;;;;23.77;11.60;;;;;;;;;;5035945;28;20060;-51
2021/12/17 17:46:30;;;;;;;27.73;13.05;;;;;;;;;;5035918;28;20037;-51
2021/12/17 17:48:58;;;;;;;25.67;11.98;;;;;;;;;;5035798;28;20426;-51
2021/12/17 17:51:25;;;;;;;29.98;13.45;;;;;;;;;;5035792;28;20044;-51
2021/12/17 17:53:51;;;;;;;29.52;12.05;;;;;;;;;;5035593;28;20032;-50
2021/12/17 17:56:17;;;;;;;24.17;12.48;;;;;;;;;;5035448;28;20079;-51
2021/12/17 17:58:49;;;;;;;30.42;12.95;;;;;;;;;;5035760;28;20060;-52